Time;durP1;ratioP1;P1;durP2;ratioP2;P2;SDS_P1;SDS_P2;PMS_P1;PMS_P2;Temp;Humidity;BMP_temperature;BMP_pressure;BME280_temperature;BME280_humidity;BME280_pressure;Samples;Min_cycle;Max_cycle;Signal;HPM_P1;HPM_P2
2023/12/29 00:02:21;;;;;;;7.55;2.53;;;8.60;99.90;;;;;;5030338;28;20036;-65
2023/12/29 00:04:47;;;;;;;8.90;2.42;;;8.60;99.90;;;;;;5010277;28;20041;-66
2023/12/29 00:07:12;;;;;;;9.93;2.65;;;8.60;99.90;;;;;;5029639;28;20035;-65
2023/12/29 00:09:40;;;;;;;7.13;2.30;;;8.90;44.90;;;;;;5021192;28;20048;-66
2023/12/29 00:12:07;;;;;;;8.48;3.20;;;8.90;1.00;;;;;;5051625;28;20048;-65
2023/12/29 00:14:33;;;;;;;10.18;2.13;;;8.90;1.00;;;;;;5038671;28;20138;-64
2023/12/29 00:16:59;;;;;;;11.05;2.20;;;8.90;1.00;;;;;;5029301;28;20362;-68
2023/12/29 00:19:25;;;;;;;8.35;2.22;;;9.20;99.90;;;;;;5034734;28;20102;-65
2023/12/29 00:21:51;;;;;;;7.15;2.30;;;9.20;99.90;;;;;;5034531;28;20040;-65
2023/12/29 00:24:17;;;;;;;7.57;2.17;;;9.20;99.90;;;;;;5027694;28;20041;-66
2023/12/29 00:26:42;;;;;;;9.00;2.40;;;9.30;99.90;;;;;;5027994;28;20594;-66
2023/12/29 00:29:08;;;;;;;7.60;2.25;;;9.30;1.00;;;;;;5031351;28;20040;-66
2023/12/29 00:31:34;;;;;;;12.40;2.25;;;9.50;99.90;;;;;;5028094;28;20068;-66
2023/12/29 00:33:59;;;;;;;6.32;1.85;;;9.50;99.90;;;;;;5026900;28;20127;-65
2023/12/29 00:36:25;;;;;;;11.93;2.50;;;9.50;99.90;;;;;;5030017;28;20041;-66
2023/12/29 00:38:51;;;;;;;11.07;2.47;;;9.60;99.90;;;;;;5012802;28;20052;-66
2023/12/29 00:41:16;;;;;;;7.40;1.90;;;9.60;99.90;;;;;;5015836;28;20037;-65
2023/12/29 00:43:42;;;;;;;13.52;3.20;;;9.50;99.90;;;;;;5039918;28;20045;-65
2023/12/29 00:46:11;;;;;;;9.13;1.90;;;9.50;99.90;;;;;;5030478;28;20467;-64
2023/12/29 00:48:36;;;;;;;5.75;1.88;;;9.60;99.90;;;;;;5036636;28;20060;-65
2023/12/29 00:51:03;;;;;;;5.95;1.50;;;9.60;99.90;;;;;;5030645;28;20033;-66
2023/12/29 00:53:29;;;;;;;8.95;1.88;;;9.60;99.90;;;;;;5029493;28;20045;-67
2023/12/29 00:55:55;;;;;;;10.82;2.38;;;9.60;99.90;;;;;;5026841;28;20049;-67
2023/12/29 00:58:20;;;;;;;12.90;2.15;;;9.50;99.90;;;;;;5035961;28;20045;-64
2023/12/29 01:00:46;;;;;;;8.60;2.00;;;9.30;1.00;;;;;;5032519;28;20033;-66
2023/12/29 01:03:11;;;;;;;8.25;1.83;;;9.30;99.90;;;;;;5036437;28;20382;-66
2023/12/29 01:05:37;;;;;;;11.40;2.45;;;9.40;99.90;;;;;;5024846;28;20048;-66
2023/12/29 01:08:03;;;;;;;12.20;3.13;;;9.30;99.90;;;;;;5022697;28;20073;-64
2023/12/29 01:10:28;;;;;;;9.13;3.22;;;9.40;99.90;;;;;;5024601;28;20137;-66
2023/12/29 01:12:54;;;;;;;10.30;2.85;;;9.10;1.00;;;;;;5009937;28;20045;-66
2023/12/29 01:15:20;;;;;;;14.70;2.70;;;9.00;99.90;;;;;;5031893;28;20033;-67
2023/12/29 01:17:45;;;;;;;14.82;3.30;;;9.00;99.90;;;;;;5034177;28;20065;-66
2023/12/29 01:20:11;;;;;;;10.88;2.92;;;8.80;99.90;;;;;;5018003;28;20083;-66
2023/12/29 01:22:36;;;;;;;12.20;3.03;;;8.90;99.90;;;;;;5031446;28;20038;-66
2023/12/29 01:25:02;;;;;;;13.25;2.58;;;8.60;99.90;;;;;;5031373;28;20037;-66
2023/12/29 01:27:29;;;;;;;11.85;3.10;;;8.90;99.90;;;;;;5031733;28;20465;-67
2023/12/29 01:29:55;;;;;;;10.60;2.85;;;8.70;99.90;;;;;;5030400;28;20081;-67
2023/12/29 01:32:21;;;;;;;16.45;3.67;;;8.80;99.90;;;;;;5027266;28;20422;-66
2023/12/29 01:34:47;;;;;;;10.07;3.00;;;8.80;99.90;;;;;;5028524;28;20040;-66
2023/12/29 01:37:13;;;;;;;18.88;2.88;;;8.80;99.90;;;;;;5032936;28;20385;-66
2023/12/29 01:39:39;;;;;;;10.90;3.08;;;8.90;94.40;;;;;;5019739;28;20044;-66
2023/12/29 01:42:05;;;;;;;13.45;3.40;;;8.90;1.00;;;;;;5034653;28;20033;-66
2023/12/29 01:44:31;;;;;;;14.48;2.90;;;8.90;1.00;;;;;;5032383;28;20044;-66
2023/12/29 01:47:00;;;;;;;11.10;3.03;;;9.00;1.00;;;;;;5011470;28;20048;-66
2023/12/29 01:49:27;;;;;;;12.38;4.05;;;9.00;1.00;;;;;;5037002;28;20033;-66
2023/12/29 01:51:58;;;;;;;13.90;3.15;;;9.00;1.00;;;;;;5039160;28;20037;-67
2023/12/29 01:54:27;;;;;;;12.00;2.92;;;8.90;1.00;;;;;;5028000;28;20792;-66
2023/12/29 01:56:56;;;;;;;13.65;3.35;;;9.00;1.00;;;;;;5028540;28;20057;-66
2023/12/29 01:59:22;;;;;;;13.70;3.40;;;9.10;1.00;;;;;;5030874;28;20044;-67
2023/12/29 02:01:48;;;;;;;10.95;3.10;;;9.10;1.00;;;;;;5030821;28;20497;-66
2023/12/29 02:04:15;;;;;;;13.60;3.15;;;9.10;1.00;;;;;;5023115;28;20128;-66
2023/12/29 02:06:41;;;;;;;9.27;2.95;;;9.10;1.00;;;;;;5029139;28;20041;-66
2023/12/29 02:09:07;;;;;;;13.82;3.25;;;8.70;99.90;;;;;;5033202;28;20360;-66
2023/12/29 02:11:32;;;;;;;14.65;3.33;;;9.00;99.90;;;;;;5033568;28;20086;-68
2023/12/29 02:13:59;;;;;;;13.95;2.90;;;8.90;1.00;;;;;;5025499;28;20120;-63
2023/12/29 02:17:08;;;;;;;11.93;3.05;;;9.40;99.90;;;;;;5037938;28;20056;-64
2023/12/29 02:19:43;;;;;;;13.48;3.55;;;8.60;99.90;;;;;;5022285;28;20049;-64
2023/12/29 02:22:09;;;;;;;16.67;4.40;;;8.80;99.90;;;;;;5027919;28;20033;-65
2023/12/29 02:24:38;;;;;;;17.92;4.00;;;9.30;99.90;;;;;;5031179;28;20049;-64
2023/12/29 02:27:32;;;;;;;18.73;5.32;;;9.00;99.90;;;;;;5034187;28;20072;-65
2023/12/29 02:30:20;;;;;;;13.55;3.72;;;9.50;99.90;;;;;;5027881;28;20172;-67
2023/12/29 02:32:47;;;;;;;18.92;4.22;;;8.90;99.90;;;;;;5037946;28;20123;-66
2023/12/29 02:35:23;;;;;;;9.32;3.80;;;9.50;99.90;;;;;;5031826;28;20042;-67
2023/12/29 02:37:48;;;;;;;16.83;3.88;;;9.50;99.90;;;;;;5017085;28;20045;-66
2023/12/29 02:40:15;;;;;;;26.83;5.82;;;9.40;99.90;;;;;;5024828;28;20037;-68
2023/12/29 02:42:46;;;;;;;12.63;4.03;;;9.40;99.90;;;;;;5034975;28;20033;-65
2023/12/29 02:45:11;;;;;;;16.85;4.43;;;9.20;99.90;;;;;;5029585;28;20185;-66
2023/12/29 02:47:37;;;;;;;12.68;3.92;;;9.00;99.90;;;;;;5033665;28;20161;-66
2023/12/29 02:50:03;;;;;;;16.42;4.13;;;8.70;99.90;;;;;;5028185;28;20104;-67
2023/12/29 02:52:28;;;;;;;15.85;4.35;;;8.90;99.90;;;;;;5033889;28;20037;-68
2023/12/29 02:54:54;;;;;;;10.98;3.47;;;8.90;99.90;;;;;;5031999;28;20121;-66
2023/12/29 02:57:20;;;;;;;10.65;2.28;;;9.30;99.90;;;;;;5040801;28;20409;-69
2023/12/29 02:59:45;;;;;;;5.65;2.25;;;9.30;99.90;;;;;;5034486;28;20044;-69
2023/12/29 03:02:11;;;;;;;9.95;2.35;;;9.10;99.90;;;;;;5036946;28;20381;-70
2023/12/29 03:04:36;;;;;;;11.13;2.90;;;8.60;99.90;;;;;;5018281;28;20123;-66
2023/12/29 03:07:02;;;;;;;17.27;3.22;;;8.50;21.00;;;;;;5035718;28;20086;-68
2023/12/29 03:09:28;;;;;;;13.32;3.53;;;8.50;90.50;;;;;;5033160;28;20115;-69
2023/12/29 03:11:53;;;;;;;10.68;2.58;;;9.00;99.90;;;;;;5036636;28;20045;-70
2023/12/29 03:14:19;;;;;;;14.70;2.92;;;8.50;99.90;;;;;;5035630;28;20072;-70
2023/12/29 03:16:44;;;;;;;12.40;2.50;;;8.90;99.90;;;;;;5036729;28;20509;-69
2023/12/29 03:19:10;;;;;;;8.55;2.17;;;8.90;99.90;;;;;;5019163;28;20029;-68
2023/12/29 03:21:36;;;;;;;12.32;2.45;;;8.10;99.90;;;;;;5015255;28;20045;-68
2023/12/29 03:24:02;;;;;;;9.82;2.63;;;8.60;99.90;;;;;;5034094;28;20126;-69
2023/12/29 03:26:27;;;;;;;14.68;3.20;;;7.90;99.90;;;;;;5029858;28;20041;-69
2023/12/29 03:28:54;;;;;;;13.10;3.55;;;8.00;99.90;;;;;;5042418;28;20758;-68
2023/12/29 03:31:20;;;;;;;21.38;3.85;;;8.30;99.90;;;;;;5030542;28;20055;-68
2023/12/29 03:33:46;;;;;;;15.38;3.80;;;8.60;99.90;;;;;;5035241;28;20505;-67
2023/12/29 03:36:11;;;;;;;17.88;3.92;;;8.50;99.90;;;;;;5029517;28;20413;-69
2023/12/29 03:38:37;;;;;;;11.95;3.90;;;8.40;99.90;;;;;;5040590;28;20406;-68
2023/12/29 03:41:03;;;;;;;19.65;5.05;;;8.60;99.90;;;;;;5032954;28;20040;-68
2023/12/29 03:43:29;;;;;;;19.85;4.18;;;8.20;99.90;;;;;;5041769;28;20040;-70
2023/12/29 03:45:55;;;;;;;19.13;4.90;;;8.40;99.90;;;;;;5015780;28;20103;-70
2023/12/29 03:48:20;;;;;;;18.15;5.03;;;9.00;99.90;;;;;;5034264;28;20044;-69
2023/12/29 03:50:46;;;;;;;16.30;4.90;;;8.40;99.90;;;;;;5029956;28;20064;-72
2023/12/29 03:53:11;;;;;;;18.05;4.40;;;8.70;99.90;;;;;;5043722;28;22609;-69
2023/12/29 03:55:37;;;;;;;16.17;4.43;;;8.50;99.90;;;;;;5013641;28;20176;-69
2023/12/29 03:58:03;;;;;;;25.17;5.20;;;8.30;99.90;;;;;;5034862;28;20039;-70
2023/12/29 04:00:29;;;;;;;21.25;5.15;;;8.50;99.90;;;;;;5035278;28;20102;-69
2023/12/29 04:02:54;;;;;;;15.55;4.80;;;8.50;99.90;;;;;;5035491;28;20064;-68
2023/12/29 04:05:20;;;;;;;14.32;4.88;;;8.60;99.90;;;;;;5017138;28;20429;-69
2023/12/29 04:07:46;;;;;;;26.20;4.63;;;8.50;99.90;;;;;;5012942;28;20634;-69
2023/12/29 04:10:11;;;;;;;20.08;4.13;;;9.20;29.40;;;;;;5033243;28;20041;-73
2023/12/29 04:12:37;;;;;;;25.63;4.90;;;9.00;99.90;;;;;;5022214;28;20037;-73
2023/12/29 04:15:06;;;;;;;22.38;4.90;;;9.00;99.90;;;;;;5040720;28;20048;-71
2023/12/29 04:17:31;;;;;;;25.23;5.18;;;8.30;99.90;;;;;;5014394;28;20055;-71
2023/12/29 04:19:57;;;;;;;21.13;4.57;;;9.10;99.90;;;;;;5023263;28;20037;-71
2023/12/29 04:22:23;;;;;;;25.80;4.18;;;8.70;99.90;;;;;;5028243;28;20393;-72
2023/12/29 04:24:48;;;;;;;21.25;5.38;;;8.90;99.90;;;;;;5021335;28;20083;-69
2023/12/29 04:27:15;;;;;;;19.20;4.63;;;8.60;99.90;;;;;;5035224;28;20382;-69
2023/12/29 04:29:41;;;;;;;24.10;4.10;;;8.80;99.90;;;;;;5034322;28;20061;-70
2023/12/29 04:32:06;;;;;;;22.20;4.68;;;8.90;99.90;;;;;;5033942;28;20041;-69
2023/12/29 04:34:32;;;;;;;22.15;4.55;;;8.50;99.90;;;;;;5032759;28;20052;-70
2023/12/29 04:36:57;;;;;;;21.85;4.88;;;8.80;99.90;;;;;;5028553;28;20068;-71
2023/12/29 04:39:24;;;;;;;21.23;4.57;;;8.90;99.90;;;;;;5030420;28;20041;-69
2023/12/29 04:41:50;;;;;;;20.00;4.60;;;8.80;99.90;;;;;;5022834;28;20083;-70
2023/12/29 04:44:16;;;;;;;25.73;5.10;;;8.70;99.90;;;;;;5029818;28;20072;-69
2023/12/29 04:46:42;;;;;;;18.50;4.85;;;8.80;99.90;;;;;;5027078;28;20044;-69
2023/12/29 04:49:08;;;;;;;27.30;4.63;;;8.30;99.90;;;;;;5030623;28;20119;-69
2023/12/29 04:51:34;;;;;;;22.75;5.07;;;8.20;99.90;;;;;;5026413;28;20373;-68
2023/12/29 04:53:59;;;;;;;13.60;4.32;;;8.50;99.90;;;;;;5030609;28;20049;-72
2023/12/29 04:56:25;;;;;;;20.67;4.38;;;8.80;99.90;;;;;;5000704;28;20049;-69
2023/12/29 04:58:51;;;;;;;17.67;5.70;;;8.10;99.90;;;;;;5026884;28;20040;-68
2023/12/29 05:01:17;;;;;;;20.50;4.10;;;8.20;99.90;;;;;;5028922;28;20037;-70
2023/12/29 05:03:43;;;;;;;27.30;5.68;;;8.20;99.90;;;;;;5012309;28;20540;-68
2023/12/29 05:06:08;;;;;;;19.25;4.13;;;8.60;99.90;;;;;;5017882;28;20069;-73
2023/12/29 05:08:34;;;;;;;15.45;3.92;;;8.30;99.90;;;;;;5016582;28;20057;-67
2023/12/29 05:11:00;;;;;;;23.23;4.00;;;8.60;99.90;;;;;;5027243;28;20822;-68
2023/12/29 05:13:26;;;;;;;23.60;4.78;;;8.20;99.90;;;;;;5022634;28;20433;-69
2023/12/29 05:15:52;;;;;;;21.63;3.53;;;8.20;99.90;;;;;;5031402;28;20043;-67
2023/12/29 05:18:17;;;;;;;21.27;3.65;;;8.50;99.90;;;;;;5032269;28;20072;-70
2023/12/29 05:20:43;;;;;;;18.65;3.40;;;8.50;99.90;;;;;;5032271;28;20039;-69
2023/12/29 05:23:09;;;;;;;17.73;3.28;;;8.20;99.90;;;;;;5028315;28;20739;-69
2023/12/29 05:25:34;;;;;;;19.67;3.70;;;8.20;99.90;;;;;;5012926;28;20076;-69
2023/12/29 05:28:00;;;;;;;20.77;2.85;;;8.20;99.90;;;;;;5027851;28;20103;-71
2023/12/29 05:30:31;;;;;;;18.17;4.15;;;8.10;99.90;;;;;;5032656;28;20496;-70
2023/12/29 05:32:57;;;;;;;18.65;3.50;;;8.10;99.90;;;;;;5038118;28;20040;-70
2023/12/29 05:35:22;;;;;;;20.58;3.95;;;8.20;99.90;;;;;;5031395;28;20068;-68
2023/12/29 05:37:50;;;;;;;22.85;2.88;;;8.30;99.90;;;;;;5030413;28;20048;-68
2023/12/29 05:40:16;;;;;;;24.95;3.85;;;8.10;99.90;;;;;;5032250;28;20048;-70
2023/12/29 05:42:41;;;;;;;21.13;3.20;;;8.10;99.90;;;;;;5028084;28;20033;-70
2023/12/29 05:45:08;;;;;;;19.85;3.08;;;8.00;99.90;;;;;;5018743;28;20103;-68
2023/12/29 05:47:33;;;;;;;21.25;3.53;;;7.90;99.90;;;;;;5039466;28;20041;-70
2023/12/29 05:49:59;;;;;;;17.27;2.88;;;8.00;99.90;;;;;;5040268;28;20060;-70
2023/12/29 05:52:25;;;;;;;19.48;3.42;;;7.90;99.90;;;;;;5032746;28;20045;-69
2023/12/29 05:54:50;;;;;;;21.02;2.95;;;8.00;99.90;;;;;;5034877;28;20587;-70
2023/12/29 05:57:16;;;;;;;15.65;2.67;;;8.00;99.90;;;;;;5036971;28;20043;-68
2023/12/29 05:59:41;;;;;;;13.88;2.88;;;7.90;99.90;;;;;;5010082;28;20112;-68
2023/12/29 06:02:07;;;;;;;19.13;3.45;;;7.90;99.90;;;;;;5027743;28;21099;-68
2023/12/29 06:04:33;;;;;;;16.80;2.58;;;7.90;99.90;;;;;;5032557;28;20481;-69
2023/12/29 06:06:58;;;;;;;21.83;3.25;;;8.00;99.90;;;;;;5037076;28;20059;-69
2023/12/29 06:09:24;;;;;;;18.98;3.00;;;7.90;99.90;;;;;;5035703;28;20059;-68
2023/12/29 06:11:50;;;;;;;20.88;3.33;;;7.90;99.90;;;;;;5025832;28;20076;-67
2023/12/29 06:14:15;;;;;;;17.35;2.92;;;7.90;99.90;;;;;;5020871;28;20041;-68
2023/12/29 06:16:41;;;;;;;20.55;2.80;;;8.00;99.90;;;;;;5015779;28;20599;-67
2023/12/29 06:19:08;;;;;;;15.75;2.67;;;7.90;99.90;;;;;;5019474;28;20044;-70
2023/12/29 06:21:33;;;;;;;20.10;3.35;;;8.00;99.90;;;;;;5036012;28;20600;-67
2023/12/29 06:23:59;;;;;;;21.65;3.88;;;8.00;99.90;;;;;;5030816;28;20037;-70
2023/12/29 06:26:25;;;;;;;19.05;3.05;;;8.10;99.90;;;;;;5026783;28;20041;-67
2023/12/29 06:28:50;;;;;;;21.63;3.17;;;8.10;99.90;;;;;;5037138;28;20114;-69
2023/12/29 06:31:17;;;;;;;26.60;4.53;;;8.20;99.90;;;;;;5029061;28;20132;-69
2023/12/29 06:33:44;;;;;;;19.42;3.65;;;8.30;99.90;;;;;;5037393;28;20325;-65
2023/12/29 06:36:10;;;;;;;23.77;3.60;;;8.30;99.90;;;;;;5029575;28;20087;-69
2023/12/29 06:38:36;;;;;;;19.13;2.92;;;8.40;99.90;;;;;;5042730;28;20532;-68
2023/12/29 06:41:03;;;;;;;21.05;3.97;;;8.40;99.90;;;;;;5034210;28;20094;-67
2023/12/29 06:43:29;;;;;;;17.67;3.28;;;8.40;99.90;;;;;;5040539;28;20116;-66
2023/12/29 06:45:55;;;;;;;22.70;3.10;;;8.40;99.90;;;;;;5033833;28;20155;-69
2023/12/29 06:48:20;;;;;;;22.10;3.65;;;8.40;99.90;;;;;;5048446;28;20041;-69
2023/12/29 06:50:46;;;;;;;23.08;3.20;;;8.40;99.90;;;;;;5026320;28;20091;-67
2023/12/29 06:53:12;;;;;;;22.27;3.90;;;8.50;99.90;;;;;;5033545;28;20056;-67
2023/12/29 06:55:37;;;;;;;27.02;3.70;;;8.50;99.90;;;;;;5033756;28;20044;-68
2023/12/29 06:58:04;;;;;;;33.83;4.93;;;8.40;99.90;;;;;;5039684;28;20033;-67
2023/12/29 07:00:30;;;;;;;20.15;3.67;;;8.40;99.90;;;;;;5044893;28;20075;-69
2023/12/29 07:02:56;;;;;;;28.85;3.90;;;8.50;99.90;;;;;;5022008;28;20120;-67
2023/12/29 07:05:21;;;;;;;19.48;3.78;;;8.40;99.90;;;;;;5022642;28;20041;-67
2023/12/29 07:07:47;;;;;;;17.25;3.22;;;8.40;99.90;;;;;;5052832;28;20061;-68
2023/12/29 07:10:16;;;;;;;25.35;3.80;;;8.40;99.90;;;;;;5042465;28;20496;-69
2023/12/29 07:12:41;;;;;;;28.73;4.72;;;8.40;99.90;;;;;;5034076;28;20144;-71
2023/12/29 07:15:07;;;;;;;22.30;4.10;;;8.40;99.90;;;;;;5042683;28;20156;-67
2023/12/29 07:17:33;;;;;;;23.50;4.70;;;8.40;99.90;;;;;;5044175;28;20037;-69
2023/12/29 07:19:58;;;;;;;24.38;3.83;;;8.40;99.90;;;;;;5049527;28;20044;-68
2023/12/29 07:22:24;;;;;;;27.95;4.22;;;8.40;99.90;;;;;;5042237;28;20095;-70
2023/12/29 07:24:50;;;;;;;25.40;4.22;;;8.40;99.90;;;;;;5049266;28;20045;-66
2023/12/29 07:27:15;;;;;;;25.20;5.22;;;8.40;99.90;;;;;;5032142;28;20041;-68
2023/12/29 07:29:41;;;;;;;23.23;3.65;;;8.40;99.90;;;;;;5034879;28;20072;-66
2023/12/29 07:32:07;;;;;;;19.55;3.45;;;8.40;99.90;;;;;;5024712;28;20115;-67
2023/12/29 07:34:32;;;;;;;20.67;4.95;;;8.40;99.90;;;;;;5038336;28;20042;-68
2023/12/29 07:36:58;;;;;;;23.80;3.83;;;8.40;99.90;;;;;;5036206;28;20034;-69
2023/12/29 07:39:24;;;;;;;22.23;3.65;;;8.40;99.90;;;;;;5038908;28;20034;-68
2023/12/29 07:41:50;;;;;;;28.45;4.43;;;8.40;99.90;;;;;;5036394;28;20706;-67
2023/12/29 07:44:17;;;;;;;31.55;4.63;;;8.40;99.90;;;;;;5047293;28;20036;-67
2023/12/29 07:46:44;;;;;;;14.23;3.08;;;8.50;99.90;;;;;;5041729;28;20045;-66
2023/12/29 07:49:10;;;;;;;13.48;2.35;;;8.30;99.90;;;;;;5048798;28;20358;-68
2023/12/29 07:51:40;;;;;;;22.52;3.30;;;7.90;99.90;;;;;;5048752;28;20069;-67
2023/12/29 07:54:07;;;;;;;22.33;2.97;;;7.90;99.90;;;;;;5032031;28;20059;-69
2023/12/29 07:56:33;;;;;;;24.60;3.38;;;8.10;99.90;;;;;;5031913;28;20038;-68
2023/12/29 07:58:58;;;;;;;23.70;3.20;;;8.30;99.90;;;;;;5033670;28;20033;-67
2023/12/29 08:01:24;;;;;;;21.98;3.72;;;8.00;99.90;;;;;;5032557;28;20037;-68
2023/12/29 08:03:49;;;;;;;29.27;4.40;;;8.40;99.90;;;;;;5037775;28;20076;-66
2023/12/29 08:06:15;;;;;;;22.00;4.18;;;8.40;99.90;;;;;;5043959;28;20029;-69
2023/12/29 08:08:41;;;;;;;23.90;4.75;;;8.20;99.90;;;;;;5020146;28;20045;-68
2023/12/29 08:11:16;;;;;;;29.35;5.22;;;8.50;99.90;;;;;;5052800;28;20449;-71
2023/12/29 08:13:43;;;;;;;32.88;4.72;;;8.60;99.90;;;;;;5040488;28;20038;-67
2023/12/29 08:16:09;;;;;;;25.85;4.13;;;8.50;99.90;;;;;;5027271;28;20041;-67
2023/12/29 08:18:35;;;;;;;21.63;3.70;;;8.40;99.90;;;;;;5050399;28;20044;-69
2023/12/29 08:21:01;;;;;;;24.80;3.80;;;8.40;99.90;;;;;;5022921;28;20486;-70
2023/12/29 08:23:27;;;;;;;23.27;3.75;;;8.40;99.90;;;;;;5031547;28;20044;-68
2023/12/29 08:25:52;;;;;;;25.55;3.80;;;8.40;99.90;;;;;;5047797;28;20106;-68
2023/12/29 08:28:18;;;;;;;26.25;4.07;;;8.50;99.90;;;;;;5040607;28;20055;-69
2023/12/29 08:30:45;;;;;;;26.27;4.68;;;8.50;99.90;;;;;;5040402;28;20057;-69
2023/12/29 08:33:13;;;;;;;18.45;3.30;;;8.50;99.90;;;;;;5031429;28;20069;-68
2023/12/29 08:35:40;;;;;;;22.58;4.05;;;8.60;99.90;;;;;;5039514;28;20049;-68
2023/12/29 08:38:06;;;;;;;15.00;3.67;;;8.50;99.90;;;;;;5034738;28;20039;-70
2023/12/29 08:40:32;;;;;;;20.90;4.80;;;8.60;99.90;;;;;;5033279;28;20121;-68
2023/12/29 08:42:58;;;;;;;21.98;4.60;;;8.60;99.90;;;;;;5032102;28;20041;-68
2023/12/29 08:45:23;;;;;;;20.92;3.67;;;8.50;99.90;;;;;;5033626;28;20079;-69
2023/12/29 08:47:49;;;;;;;22.23;4.55;;;8.70;99.90;;;;;;5031040;28;20037;-69
2023/12/29 08:50:15;;;;;;;26.25;4.13;;;8.70;99.90;;;;;;5032415;28;20426;-68
2023/12/29 08:52:41;;;;;;;20.85;4.18;;;8.50;99.90;;;;;;5014962;28;20072;-69
2023/12/29 08:55:08;;;;;;;15.63;4.00;;;8.60;99.90;;;;;;5031088;28;20073;-67
2023/12/29 08:57:34;;;;;;;20.00;4.15;;;8.70;99.90;;;;;;5033016;28;20650;-69
2023/12/29 08:59:59;;;;;;;29.42;4.68;;;8.70;99.90;;;;;;5031286;28;20146;-67
2023/12/29 09:02:25;;;;;;;23.92;4.00;;;8.50;99.90;;;;;;5031176;28;20197;-66
2023/12/29 09:04:51;;;;;;;22.77;4.25;;;8.60;99.90;;;;;;5044240;28;20045;-66
2023/12/29 09:07:17;;;;;;;18.98;4.35;;;8.60;99.90;;;;;;5030726;28;20045;-69
2023/12/29 09:09:42;;;;;;;18.48;5.43;;;8.60;99.90;;;;;;5030605;28;20041;-66
2023/12/29 09:12:08;;;;;;;25.70;3.90;;;8.70;99.90;;;;;;5017977;28;20118;-68
2023/12/29 09:14:34;;;;;;;23.88;4.32;;;8.60;99.90;;;;;;5014623;28;20038;-67
2023/12/29 09:17:00;;;;;;;19.80;4.00;;;8.80;99.90;;;;;;5031237;28;20049;-67
2023/12/29 09:19:26;;;;;;;19.20;3.30;;;8.80;99.90;;;;;;5044438;28;20119;-69
2023/12/29 09:21:52;;;;;;;15.60;3.60;;;8.80;99.90;;;;;;5031904;28;20172;-70
2023/12/29 09:24:17;;;;;;;18.27;3.10;;;8.70;99.90;;;;;;5031925;28;20484;-66
2023/12/29 09:26:43;;;;;;;16.50;3.40;;;8.70;99.90;;;;;;5035120;28;20056;-69
2023/12/29 09:29:08;;;;;;;14.55;3.60;;;8.60;99.90;;;;;;5040508;28;20114;-69
2023/12/29 09:31:35;;;;;;;15.57;3.22;;;8.80;99.90;;;;;;5039615;28;20136;-68
2023/12/29 09:34:01;;;;;;;12.75;3.05;;;8.70;99.90;;;;;;5038969;28;20481;-68
2023/12/29 09:36:28;;;;;;;20.00;3.58;;;8.80;99.90;;;;;;5025221;28;20497;-68
2023/12/29 09:38:54;;;;;;;23.75;4.35;;;9.00;99.90;;;;;;5035349;28;20068;-68
2023/12/29 09:41:23;;;;;;;11.30;3.63;;;9.20;99.90;;;;;;5041283;28;20417;-69
2023/12/29 09:43:50;;;;;;;23.13;3.83;;;8.90;99.90;;;;;;5037410;28;20033;-70
2023/12/29 09:46:18;;;;;;;20.92;4.35;;;8.80;99.90;;;;;;5039680;28;20102;-68
2023/12/29 09:48:46;;;;;;;22.35;3.88;;;8.70;99.90;;;;;;5036022;28;20037;-68
2023/12/29 09:51:13;;;;;;;17.73;4.00;;;8.90;99.90;;;;;;5050406;28;20060;-68
2023/12/29 09:53:40;;;;;;;22.45;4.78;;;9.20;99.90;;;;;;5050493;28;20428;-69
2023/12/29 09:56:08;;;;;;;21.33;3.80;;;9.00;99.90;;;;;;5039873;28;20050;-69
2023/12/29 09:58:37;;;;;;;14.68;3.83;;;9.10;99.90;;;;;;5031837;28;20056;-69
2023/12/29 10:01:04;;;;;;;18.17;4.25;;;9.10;99.90;;;;;;5034689;28;20094;-70
2023/12/29 10:03:31;;;;;;;19.08;3.72;;;9.00;99.90;;;;;;5032227;28;20073;-69
2023/12/29 10:06:00;;;;;;;15.77;3.25;;;9.10;99.90;;;;;;5039980;28;20049;-71
2023/12/29 10:08:28;;;;;;;15.38;3.75;;;9.00;99.90;;;;;;5032733;28;20043;-68
2023/12/29 10:10:58;;;;;;;13.27;3.70;;;9.00;99.90;;;;;;5029602;28;20081;-67
2023/12/29 10:13:24;;;;;;;17.88;3.45;;;9.10;99.90;;;;;;5013877;28;20176;-70
2023/12/29 10:16:00;;;;;;;16.08;3.17;;;9.10;99.90;;;;;;5029823;28;20129;-69
2023/12/29 10:18:42;;;;;;;15.88;3.13;;;9.20;99.90;;;;;;5037742;28;20034;-71
2023/12/29 10:21:12;;;;;;;15.48;3.28;;;9.00;99.90;;;;;;5029523;28;20037;-69
2023/12/29 10:23:45;;;;;;;17.40;3.20;;;9.10;99.90;;;;;;5017869;28;20115;-68
2023/12/29 10:26:12;;;;;;;30.00;3.97;;;9.00;99.90;;;;;;5011685;28;20508;-70
2023/12/29 10:28:38;;;;;;;15.43;3.08;;;9.00;99.90;;;;;;5035982;28;20534;-69
2023/12/29 10:31:04;;;;;;;12.32;2.85;;;9.20;99.90;;;;;;5040627;28;20140;-67
2023/12/29 10:33:32;;;;;;;17.65;3.90;;;9.20;99.90;;;;;;5028925;28;20049;-69
2023/12/29 10:36:03;;;;;;;18.15;3.03;;;9.10;99.90;;;;;;5035109;28;20511;-69
2023/12/29 10:38:30;;;;;;;23.95;3.47;;;9.20;99.90;;;;;;5012614;28;20060;-68
2023/12/29 10:41:10;;;;;;;16.88;2.95;;;9.20;99.90;;;;;;5034584;28;20038;-67
2023/12/29 10:43:35;;;;;;;20.88;3.33;;;9.10;99.90;;;;;;5031152;28;20508;-68
2023/12/29 10:46:11;;;;;;;14.88;3.03;;;9.10;99.90;;;;;;5029562;28;20029;-69
2023/12/29 10:48:37;;;;;;;16.58;3.25;;;9.10;99.90;;;;;;5030705;28;20049;-70
2023/12/29 10:51:04;;;;;;;16.45;3.03;;;9.00;99.90;;;;;;5035090;28;20481;-67
2023/12/29 10:53:34;;;;;;;17.45;2.88;;;9.00;99.90;;;;;;5030043;28;20060;-70
2023/12/29 10:55:59;;;;;;;11.50;3.03;;;9.00;99.90;;;;;;5029022;28;20482;-68
2023/12/29 10:58:29;;;;;;;11.60;2.47;;;9.00;99.90;;;;;;5048870;28;20041;-69
2023/12/29 11:00:56;;;;;;;12.38;2.95;;;9.10;99.90;;;;;;5025079;28;20049;-68
2023/12/29 11:03:22;;;;;;;20.13;3.22;;;9.10;99.90;;;;;;5030764;28;20107;-70
2023/12/29 11:05:47;;;;;;;13.35;3.05;;;9.10;99.90;;;;;;5034152;28;20465;-70
2023/12/29 11:08:21;;;;;;;12.73;2.40;;;9.00;99.90;;;;;;5045623;28;20096;-68
2023/12/29 11:10:50;;;;;;;8.18;2.55;;;9.00;99.90;;;;;;5044801;28;20521;-71
2023/12/29 11:13:16;;;;;;;15.60;2.22;;;9.00;99.90;;;;;;5045505;28;20037;-67
2023/12/29 11:15:46;;;;;;;15.60;2.40;;;8.90;99.90;;;;;;5035358;28;20054;-68
2023/12/29 11:18:18;;;;;;;;;;;8.90;99.90;;;;;;5043761;28;20034;-68
2023/12/29 11:20:46;;;;;;;13.13;2.33;;;8.90;99.90;;;;;;5040278;28;19920;-67
2023/12/29 11:23:15;;;;;;;12.15;2.42;;;8.90;99.90;;;;;;5036425;28;20029;-68
2023/12/29 11:25:48;;;;;;;14.80;2.05;;;8.90;99.90;;;;;;5034895;28;20065;-69
2023/12/29 11:28:14;;;;;;;7.45;2.50;;;8.90;99.90;;;;;;5040199;28;20040;-67
2023/12/29 11:30:40;;;;;;;10.82;2.40;;;8.90;99.90;;;;;;5016088;28;20366;-71
2023/12/29 11:33:20;;;;;;;13.45;3.10;;;8.80;99.90;;;;;;5035561;28;20159;-69
2023/12/29 11:35:46;;;;;;;;;;;9.00;99.90;;;;;;5039151;28;20163;-66
2023/12/29 11:38:54;;;;;;;11.40;2.60;;;8.90;99.90;;;;;;5017436;28;20031;-68
2023/12/29 11:41:26;;;;;;;13.25;1.80;;;8.80;99.90;;;;;;5039451;28;20067;-69
2023/12/29 11:44:01;;;;;;;13.20;2.25;;;8.70;99.90;;;;;;5052700;28;20041;-67
2023/12/29 11:46:37;;;;;;;14.68;2.33;;;8.90;99.90;;;;;;5052566;28;20040;-68
2023/12/29 11:49:04;;;;;;;15.68;2.55;;;8.80;99.90;;;;;;5053103;28;20127;-69
2023/12/29 11:51:40;;;;;;;15.90;1.80;;;8.80;99.90;;;;;;5035394;28;20092;-69
2023/12/29 11:54:07;;;;;;;13.55;2.67;;;8.80;99.90;;;;;;5031933;28;20037;-67
2023/12/29 11:56:40;;;;;;;19.38;2.55;;;8.60;99.90;;;;;;5035537;28;20516;-67
2023/12/29 11:59:24;;;;;;;11.88;2.10;;;8.60;99.90;;;;;;5035014;28;20029;-71
2023/12/29 12:01:57;;;;;;;10.30;2.10;;;8.60;99.90;;;;;;5035865;28;20047;-68
2023/12/29 12:04:44;;;;;;;14.27;2.30;;;8.60;99.90;;;;;;5016606;28;20482;-68
2023/12/29 12:07:21;;;;;;;13.60;2.30;;;8.60;99.90;;;;;;5032069;28;20073;-64
2023/12/29 12:09:49;;;;;;;13.30;2.42;;;8.50;99.90;;;;;;5031007;28;20477;-68
2023/12/29 12:12:41;;;;;;;11.80;2.00;;;8.50;99.90;;;;;;5035741;28;20037;-68
2023/12/29 12:15:34;;;;;;;7.18;2.03;;;8.40;99.90;;;;;;5035054;28;20766;-68
2023/12/29 12:18:04;;;;;;;11.77;2.63;;;8.40;99.90;;;;;;5037275;28;20107;-69
2023/12/29 12:20:30;;;;;;;;;;;8.40;99.90;;;;;;5016212;28;20044;-67
2023/12/29 12:22:58;;;;;;;10.88;1.65;;;8.20;99.90;;;;;;5037296;28;20487;-67
2023/12/29 12:25:29;;;;;;;14.48;2.33;;;8.20;99.90;;;;;;5050784;28;20072;-67
2023/12/29 12:27:56;;;;;;;10.20;1.73;;;8.30;99.90;;;;;;5049661;28;20090;-70
2023/12/29 12:30:22;;;;;;;11.63;1.67;;;8.40;99.90;;;;;;5050131;28;20053;-69
2023/12/29 12:33:02;;;;;;;10.60;2.80;;;8.60;99.90;;;;;;5036892;28;20123;-68
2023/12/29 12:35:29;;;;;;;15.07;3.10;;;8.40;99.90;;;;;;5034652;28;20129;-68
2023/12/29 12:38:08;;;;;;;9.10;2.33;;;8.40;99.90;;;;;;5044575;28;20033;-67
2023/12/29 12:40:34;;;;;;;15.93;2.47;;;8.50;99.90;;;;;;5030302;28;20064;-66
2023/12/29 12:42:59;;;;;;;8.20;1.65;;;8.50;99.90;;;;;;5031946;28;20463;-67
2023/12/29 12:45:27;;;;;;;18.52;2.38;;;8.50;99.90;;;;;;5031702;28;20050;-68
2023/12/29 12:48:00;;;;;;;17.80;2.53;;;8.60;99.90;;;;;;5021067;28;20049;-67
2023/12/29 12:50:26;;;;;;;14.23;2.25;;;8.60;99.90;;;;;;5040369;28;20119;-69
2023/12/29 12:52:52;;;;;;;15.43;2.92;;;8.80;99.90;;;;;;5039848;28;20112;-70